Airfield :
LOGIN :

Register | Disclaimer

   EN    FR    IT 

 










Legend :    VFR   Marginal VFR   IFR   Intensive IFR   Very Intensive IFR
Visi :
Ceiling :
>= 8 km
>= 3000ft
5 to 8 km
1000 to 3000 ft
1500m to 5 km
500 to 1000 ft
800 to 1500m
200 to 500 ft
< 800m
< 200 ft
Symbols :   Thunderstorms  Fog  Heavy snow  Heavy precipitations  Wind > 20 kt
SIGMETs :     Misc.  Thunderstorms  Icing  Turbulence  Mountain Waves  Volcanic Ashes






- Airport Elevation : 333 ft


LIPL - Ghedi Brescia (Mil)

CURRENT METAR :
  • 160855Z 23002KT 6000 SCT050 SCT080 06/04 Q1021 RMK BKN VIS MIN 6000 WIND THR31 /////KT WIND THR13 24003KT WHT

EXPIRED METARs :
  • 160807Z 27001KT 3500 BR SCT040 SCT080 05/03 Q1020 RMK BKN VIS MIN 3500 WIND THR31 /////KT WIND THR13 20001KT YLO
  • 160755Z 04002KT 2800 BR SCT040 SCT070 05/03 Q1020 RMK BKN VIS MIN 2800 WIND THR31 /////KT WIND THR13 01001KT YLO
  • 160655Z 33003KT 1800 BR SCT030 SCT060 05/03 Q1020 RMK BKN VIS MIN 1800 WIND THR31 /////KT WIND THR13 32003KT YLO

TAF TAF LIPL
Valid from the 16 at 09:00 until the 16 at 18:00 UTC


160800Z 1609/1618 VRB03KT 3500 BR SCT025 BKN060
BECMG 1610/1612 7000 NSW
BECMG 1616/1618 2000 BR SCT010 SCT020 BKN050



MET'MAP, your aeronautical weather chart ! - Copyright ORBIFLY December 2007 - Disclaimer

ORBIFLY MET'MAP TEAM :

Programming & Development : Alexandra Zaïnal
Concept & original design : Baudouin d'Aumeries
Assistance for programming : Marc-Olivier Méhu
Technical & hardware support : Manuel Goepfert

Contact : metmap@orbifly.com




SOURCES & CREDITS :

   NOAA